sensor_id;sensor_type;location;lat;lon;timestamp;P1;durP1;ratioP1;P2;durP2;ratioP2
60352;SDS011;46196;52.970;6.954;2022-12-20T00:00:02;6.85;;;5.10;;
60352;SDS011;46196;52.970;6.954;2022-12-20T00:02:29;5.88;;;4.10;;
60352;SDS011;46196;52.970;6.954;2022-12-20T00:04:54;6.35;;;4.60;;
60352;SDS011;46196;52.970;6.954;2022-12-20T00:07:20;6.95;;;4.93;;
60352;SDS011;46196;52.970;6.954;2022-12-20T00:09:46;5.50;;;4.43;;
60352;SDS011;46196;52.970;6.954;2022-12-20T00:12:12;5.38;;;4.50;;
60352;SDS011;46196;52.970;6.954;2022-12-20T00:14:37;7.82;;;4.82;;
60352;SDS011;46196;52.970;6.954;2022-12-20T00:17:03;7.20;;;4.65;;
60352;SDS011;46196;52.970;6.954;2022-12-20T00:19:29;9.45;;;5.00;;
60352;SDS011;46196;52.970;6.954;2022-12-20T00:21:55;5.78;;;4.30;;
60352;SDS011;46196;52.970;6.954;2022-12-20T00:24:20;6.68;;;4.68;;
60352;SDS011;46196;52.970;6.954;2022-12-20T00:26:47;7.70;;;4.85;;
60352;SDS011;46196;52.970;6.954;2022-12-20T00:29:12;6.95;;;4.07;;
60352;SDS011;46196;52.970;6.954;2022-12-20T00:31:38;7.57;;;4.38;;
60352;SDS011;46196;52.970;6.954;2022-12-20T00:34:04;5.75;;;4.20;;
60352;SDS011;46196;52.970;6.954;2022-12-20T00:36:31;6.07;;;4.32;;
60352;SDS011;46196;52.970;6.954;2022-12-20T00:38:58;8.27;;;4.65;;
60352;SDS011;46196;52.970;6.954;2022-12-20T00:41:28;6.20;;;4.10;;
60352;SDS011;46196;52.970;6.954;2022-12-20T00:43:55;7.03;;;4.47;;
60352;SDS011;46196;52.970;6.954;2022-12-20T00:46:21;6.38;;;4.32;;
60352;SDS011;46196;52.970;6.954;2022-12-20T00:48:52;5.25;;;4.38;;
60352;SDS011;46196;52.970;6.954;2022-12-20T00:51:25;5.85;;;4.50;;
60352;SDS011;46196;52.970;6.954;2022-12-20T00:53:53;8.05;;;4.68;;
60352;SDS011;46196;52.970;6.954;2022-12-20T00:56:19;5.63;;;4.13;;
60352;SDS011;46196;52.970;6.954;2022-12-20T00:58:45;6.47;;;4.38;;
60352;SDS011;46196;52.970;6.954;2022-12-20T01:03:45;6.45;;;4.45;;
60352;SDS011;46196;52.970;6.954;2022-12-20T01:06:10;9.32;;;4.40;;
60352;SDS011;46196;52.970;6.954;2022-12-20T01:08:36;6.25;;;4.00;;
60352;SDS011;46196;52.970;6.954;2022-12-20T01:13:42;7.00;;;4.10;;
60352;SDS011;46196;52.970;6.954;2022-12-20T01:16:11;7.07;;;4.45;;
60352;SDS011;46196;52.970;6.954;2022-12-20T01:18:39;5.18;;;4.20;;
60352;SDS011;46196;52.970;6.954;2022-12-20T01:21:09;6.35;;;3.63;;
60352;SDS011;46196;52.970;6.954;2022-12-20T01:23:36;5.65;;;4.15;;
60352;SDS011;46196;52.970;6.954;2022-12-20T01:26:04;5.90;;;3.97;;
60352;SDS011;46196;52.970;6.954;2022-12-20T01:28:33;5.75;;;4.22;;
60352;SDS011;46196;52.970;6.954;2022-12-20T01:30:59;5.00;;;3.97;;
60352;SDS011;46196;52.970;6.954;2022-12-20T01:33:25;6.45;;;4.10;;
60352;SDS011;46196;52.970;6.954;2022-12-20T01:35:57;5.40;;;4.07;;
60352;SDS011;46196;52.970;6.954;2022-12-20T01:38:27;5.07;;;3.75;;
60352;SDS011;46196;52.970;6.954;2022-12-20T01:40:53;5.25;;;3.85;;
60352;SDS011;46196;52.970;6.954;2022-12-20T01:43:20;6.18;;;4.93;;
60352;SDS011;46196;52.970;6.954;2022-12-20T01:45:46;5.18;;;4.20;;
60352;SDS011;46196;52.970;6.954;2022-12-20T01:48:21;6.20;;;4.00;;
60352;SDS011;46196;52.970;6.954;2022-12-20T01:50:49;8.63;;;4.32;;
60352;SDS011;46196;52.970;6.954;2022-12-20T01:53:16;6.65;;;4.10;;
60352;SDS011;46196;52.970;6.954;2022-12-20T01:55:45;5.28;;;4.10;;
60352;SDS011;46196;52.970;6.954;2022-12-20T01:58:12;6.75;;;3.80;;
60352;SDS011;46196;52.970;6.954;2022-12-20T02:00:40;5.65;;;3.95;;
60352;SDS011;46196;52.970;6.954;2022-12-20T02:03:06;4.45;;;3.53;;
60352;SDS011;46196;52.970;6.954;2022-12-20T02:05:36;5.88;;;3.63;;
60352;SDS011;46196;52.970;6.954;2022-12-20T02:08:04;6.15;;;3.90;;
60352;SDS011;46196;52.970;6.954;2022-12-20T02:13:09;6.20;;;4.20;;
60352;SDS011;46196;52.970;6.954;2022-12-20T02:18:26;6.55;;;3.88;;
60352;SDS011;46196;52.970;6.954;2022-12-20T02:34:41;6.05;;;4.38;;
60352;SDS011;46196;52.970;6.954;2022-12-20T02:37:08;5.97;;;4.47;;
60352;SDS011;46196;52.970;6.954;2022-12-20T02:39:35;5.32;;;3.83;;
60352;SDS011;46196;52.970;6.954;2022-12-20T02:42:04;8.57;;;5.90;;
60352;SDS011;46196;52.970;6.954;2022-12-20T02:44:36;6.03;;;3.97;;
60352;SDS011;46196;52.970;6.954;2022-12-20T02:47:32;4.75;;;3.63;;
60352;SDS011;46196;52.970;6.954;2022-12-20T02:50:11;6.20;;;4.15;;
60352;SDS011;46196;52.970;6.954;2022-12-20T02:52:38;5.00;;;3.85;;
60352;SDS011;46196;52.970;6.954;2022-12-20T02:55:05;5.15;;;3.80;;
60352;SDS011;46196;52.970;6.954;2022-12-20T02:57:33;6.97;;;3.90;;
60352;SDS011;46196;52.970;6.954;2022-12-20T03:00:17;5.50;;;3.92;;
60352;SDS011;46196;52.970;6.954;2022-12-20T03:02:45;5.63;;;4.00;;
60352;SDS011;46196;52.970;6.954;2022-12-20T03:05:31;5.30;;;3.75;;
60352;SDS011;46196;52.970;6.954;2022-12-20T03:07:59;4.80;;;3.72;;
60352;SDS011;46196;52.970;6.954;2022-12-20T03:10:25;6.88;;;4.20;;
60352;SDS011;46196;52.970;6.954;2022-12-20T03:12:51;6.18;;;3.92;;
60352;SDS011;46196;52.970;6.954;2022-12-20T03:15:17;4.88;;;3.92;;
60352;SDS011;46196;52.970;6.954;2022-12-20T03:17:43;7.05;;;4.15;;
60352;SDS011;46196;52.970;6.954;2022-12-20T03:20:09;5.55;;;3.75;;
60352;SDS011;46196;52.970;6.954;2022-12-20T03:22:35;5.15;;;3.97;;
60352;SDS011;46196;52.970;6.954;2022-12-20T03:25:01;6.88;;;4.10;;
60352;SDS011;46196;52.970;6.954;2022-12-20T03:27:27;6.78;;;4.20;;
60352;SDS011;46196;52.970;6.954;2022-12-20T03:29:53;6.90;;;4.25;;
60352;SDS011;46196;52.970;6.954;2022-12-20T03:32:19;6.05;;;4.13;;
60352;SDS011;46196;52.970;6.954;2022-12-20T03:34:45;7.47;;;4.43;;
60352;SDS011;46196;52.970;6.954;2022-12-20T03:37:11;5.55;;;4.70;;
60352;SDS011;46196;52.970;6.954;2022-12-20T03:39:37;8.05;;;4.15;;
60352;SDS011;46196;52.970;6.954;2022-12-20T03:42:03;8.68;;;4.68;;
60352;SDS011;46196;52.970;6.954;2022-12-20T03:44:29;6.28;;;3.75;;
60352;SDS011;46196;52.970;6.954;2022-12-20T03:46:55;5.93;;;4.22;;
60352;SDS011;46196;52.970;6.954;2022-12-20T03:49:20;6.47;;;4.55;;
60352;SDS011;46196;52.970;6.954;2022-12-20T03:51:46;5.63;;;4.28;;
60352;SDS011;46196;52.970;6.954;2022-12-20T03:54:12;5.53;;;3.95;;
60352;SDS011;46196;52.970;6.954;2022-12-20T03:56:37;7.07;;;4.50;;
60352;SDS011;46196;52.970;6.954;2022-12-20T03:59:03;8.23;;;4.25;;
60352;SDS011;46196;52.970;6.954;2022-12-20T04:01:29;6.47;;;3.90;;
60352;SDS011;46196;52.970;6.954;2022-12-20T04:03:55;5.93;;;4.47;;
60352;SDS011;46196;52.970;6.954;2022-12-20T04:06:21;7.72;;;4.97;;
60352;SDS011;46196;52.970;6.954;2022-12-20T04:08:48;6.60;;;4.65;;
60352;SDS011;46196;52.970;6.954;2022-12-20T04:11:14;7.72;;;4.55;;
60352;SDS011;46196;52.970;6.954;2022-12-20T04:13:40;5.72;;;4.30;;
60352;SDS011;46196;52.970;6.954;2022-12-20T04:16:17;7.10;;;4.43;;
60352;SDS011;46196;52.970;6.954;2022-12-20T04:18:44;5.97;;;4.43;;
60352;SDS011;46196;52.970;6.954;2022-12-20T04:21:10;6.03;;;4.28;;
60352;SDS011;46196;52.970;6.954;2022-12-20T04:23:38;6.88;;;4.40;;
60352;SDS011;46196;52.970;6.954;2022-12-20T04:26:05;5.63;;;4.05;;
60352;SDS011;46196;52.970;6.954;2022-12-20T04:28:32;6.25;;;4.20;;
60352;SDS011;46196;52.970;6.954;2022-12-20T04:30:58;6.85;;;4.20;;
60352;SDS011;46196;52.970;6.954;2022-12-20T04:33:24;5.35;;;3.88;;
60352;SDS011;46196;52.970;6.954;2022-12-20T04:35:51;6.05;;;3.92;;
60352;SDS011;46196;52.970;6.954;2022-12-20T04:38:17;5.90;;;4.35;;
60352;SDS011;46196;52.970;6.954;2022-12-20T04:40:44;6.13;;;4.38;;
60352;SDS011;46196;52.970;6.954;2022-12-20T04:43:12;7.18;;;4.60;;
60352;SDS011;46196;52.970;6.954;2022-12-20T04:45:38;6.90;;;4.35;;
60352;SDS011;46196;52.970;6.954;2022-12-20T04:48:04;6.70;;;4.20;;
60352;SDS011;46196;52.970;6.954;2022-12-20T04:50:29;5.03;;;4.00;;
60352;SDS011;46196;52.970;6.954;2022-12-20T04:52:55;5.50;;;4.40;;
60352;SDS011;46196;52.970;6.954;2022-12-20T04:55:40;6.35;;;4.50;;
60352;SDS011;46196;52.970;6.954;2022-12-20T04:58:06;7.38;;;4.28;;
60352;SDS011;46196;52.970;6.954;2022-12-20T05:00:32;7.30;;;3.88;;
60352;SDS011;46196;52.970;6.954;2022-12-20T05:02:58;6.53;;;4.20;;
60352;SDS011;46196;52.970;6.954;2022-12-20T05:05:24;7.00;;;3.80;;
60352;SDS011;46196;52.970;6.954;2022-12-20T05:07:50;5.63;;;4.28;;
60352;SDS011;46196;52.970;6.954;2022-12-20T05:10:17;5.65;;;4.05;;
60352;SDS011;46196;52.970;6.954;2022-12-20T05:12:43;5.60;;;3.80;;
60352;SDS011;46196;52.970;6.954;2022-12-20T05:15:09;8.55;;;4.80;;
60352;SDS011;46196;52.970;6.954;2022-12-20T05:17:36;7.95;;;4.15;;
60352;SDS011;46196;52.970;6.954;2022-12-20T05:20:02;5.47;;;3.83;;
60352;SDS011;46196;52.970;6.954;2022-12-20T05:22:29;7.72;;;4.28;;
60352;SDS011;46196;52.970;6.954;2022-12-20T05:25:13;5.72;;;3.70;;
60352;SDS011;46196;52.970;6.954;2022-12-20T05:27:58;6.45;;;4.13;;
60352;SDS011;46196;52.970;6.954;2022-12-20T05:30:23;5.60;;;4.10;;
60352;SDS011;46196;52.970;6.954;2022-12-20T05:32:52;5.38;;;3.90;;
60352;SDS011;46196;52.970;6.954;2022-12-20T05:35:18;5.88;;;3.95;;
60352;SDS011;46196;52.970;6.954;2022-12-20T05:37:44;5.63;;;3.60;;
60352;SDS011;46196;52.970;6.954;2022-12-20T05:40:10;5.53;;;4.00;;
60352;SDS011;46196;52.970;6.954;2022-12-20T05:42:36;5.45;;;3.80;;
60352;SDS011;46196;52.970;6.954;2022-12-20T05:45:02;4.90;;;3.88;;
60352;SDS011;46196;52.970;6.954;2022-12-20T05:47:29;8.32;;;3.70;;
60352;SDS011;46196;52.970;6.954;2022-12-20T05:49:58;4.60;;;3.47;;
60352;SDS011;46196;52.970;6.954;2022-12-20T05:52:24;5.03;;;3.60;;
60352;SDS011;46196;52.970;6.954;2022-12-20T05:54:50;4.43;;;3.40;;
60352;SDS011;46196;52.970;6.954;2022-12-20T05:57:16;4.63;;;3.45;;
60352;SDS011;46196;52.970;6.954;2022-12-20T05:59:43;9.23;;;4.22;;
60352;SDS011;46196;52.970;6.954;2022-12-20T06:02:09;5.35;;;3.55;;
60352;SDS011;46196;52.970;6.954;2022-12-20T06:04:36;5.80;;;3.42;;
60352;SDS011;46196;52.970;6.954;2022-12-20T06:07:02;5.30;;;3.53;;
60352;SDS011;46196;52.970;6.954;2022-12-20T06:09:29;5.00;;;3.60;;
60352;SDS011;46196;52.970;6.954;2022-12-20T06:11:55;5.88;;;4.38;;
60352;SDS011;46196;52.970;6.954;2022-12-20T06:14:22;3.65;;;3.20;;
60352;SDS011;46196;52.970;6.954;2022-12-20T06:16:47;6.22;;;4.30;;
60352;SDS011;46196;52.970;6.954;2022-12-20T06:19:13;5.20;;;3.70;;
60352;SDS011;46196;52.970;6.954;2022-12-20T06:21:39;4.47;;;3.67;;
60352;SDS011;46196;52.970;6.954;2022-12-20T06:24:05;5.10;;;3.40;;
60352;SDS011;46196;52.970;6.954;2022-12-20T06:26:31;5.30;;;3.70;;
60352;SDS011;46196;52.970;6.954;2022-12-20T06:29:03;5.05;;;3.40;;
60352;SDS011;46196;52.970;6.954;2022-12-20T06:31:34;7.40;;;4.03;;
60352;SDS011;46196;52.970;6.954;2022-12-20T06:34:00;5.00;;;3.60;;
60352;SDS011;46196;52.970;6.954;2022-12-20T06:36:26;5.60;;;3.40;;
60352;SDS011;46196;52.970;6.954;2022-12-20T06:38:51;5.25;;;3.78;;
60352;SDS011;46196;52.970;6.954;2022-12-20T06:41:17;3.88;;;3.15;;
60352;SDS011;46196;52.970;6.954;2022-12-20T06:43:43;5.25;;;3.85;;
60352;SDS011;46196;52.970;6.954;2022-12-20T06:46:09;6.40;;;3.50;;
60352;SDS011;46196;52.970;6.954;2022-12-20T06:48:35;7.47;;;3.85;;
60352;SDS011;46196;52.970;6.954;2022-12-20T06:51:00;6.13;;;3.70;;
60352;SDS011;46196;52.970;6.954;2022-12-20T06:53:26;4.85;;;3.30;;
60352;SDS011;46196;52.970;6.954;2022-12-20T06:55:52;4.95;;;3.78;;
60352;SDS011;46196;52.970;6.954;2022-12-20T06:58:18;5.63;;;3.80;;
60352;SDS011;46196;52.970;6.954;2022-12-20T07:00:45;4.72;;;3.67;;
60352;SDS011;46196;52.970;6.954;2022-12-20T07:03:11;5.40;;;4.22;;
60352;SDS011;46196;52.970;6.954;2022-12-20T07:05:37;5.40;;;4.43;;
60352;SDS011;46196;52.970;6.954;2022-12-20T07:08:04;6.88;;;4.70;;
60352;SDS011;46196;52.970;6.954;2022-12-20T07:10:32;6.22;;;4.20;;
60352;SDS011;46196;52.970;6.954;2022-12-20T07:12:58;6.57;;;5.05;;
60352;SDS011;46196;52.970;6.954;2022-12-20T07:15:24;9.98;;;5.78;;
60352;SDS011;46196;52.970;6.954;2022-12-20T07:17:50;5.50;;;4.68;;
60352;SDS011;46196;52.970;6.954;2022-12-20T07:20:16;7.03;;;5.13;;
60352;SDS011;46196;52.970;6.954;2022-12-20T07:22:42;6.90;;;4.53;;
60352;SDS011;46196;52.970;6.954;2022-12-20T07:25:08;7.18;;;4.50;;
60352;SDS011;46196;52.970;6.954;2022-12-20T07:27:35;5.47;;;4.40;;
60352;SDS011;46196;52.970;6.954;2022-12-20T07:30:01;9.10;;;4.68;;
60352;SDS011;46196;52.970;6.954;2022-12-20T07:32:27;7.55;;;5.10;;
60352;SDS011;46196;52.970;6.954;2022-12-20T07:34:53;7.05;;;4.90;;
60352;SDS011;46196;52.970;6.954;2022-12-20T07:37:19;7.25;;;5.00;;
60352;SDS011;46196;52.970;6.954;2022-12-20T07:39:45;7.00;;;4.90;;
60352;SDS011;46196;52.970;6.954;2022-12-20T07:42:11;8.52;;;5.70;;
60352;SDS011;46196;52.970;6.954;2022-12-20T07:44:36;7.68;;;4.93;;
60352;SDS011;46196;52.970;6.954;2022-12-20T07:47:02;6.90;;;5.00;;
60352;SDS011;46196;52.970;6.954;2022-12-20T07:49:28;6.57;;;4.60;;
60352;SDS011;46196;52.970;6.954;2022-12-20T07:51:54;7.47;;;4.55;;
60352;SDS011;46196;52.970;6.954;2022-12-20T07:54:24;7.65;;;4.75;;
60352;SDS011;46196;52.970;6.954;2022-12-20T07:56:55;6.45;;;5.32;;
60352;SDS011;46196;52.970;6.954;2022-12-20T08:01:51;8.50;;;5.38;;
60352;SDS011;46196;52.970;6.954;2022-12-20T08:04:18;8.00;;;5.63;;
60352;SDS011;46196;52.970;6.954;2022-12-20T08:06:47;6.72;;;5.25;;
60352;SDS011;46196;52.970;6.954;2022-12-20T08:09:14;8.13;;;5.22;;
60352;SDS011;46196;52.970;6.954;2022-12-20T08:11:42;7.07;;;4.97;;
60352;SDS011;46196;52.970;6.954;2022-12-20T08:14:11;6.43;;;5.20;;
60352;SDS011;46196;52.970;6.954;2022-12-20T08:16:37;7.80;;;4.85;;
60352;SDS011;46196;52.970;6.954;2022-12-20T08:19:02;6.55;;;5.03;;
60352;SDS011;46196;52.970;6.954;2022-12-20T08:21:29;6.45;;;4.82;;
60352;SDS011;46196;52.970;6.954;2022-12-20T08:23:55;8.20;;;5.18;;
60352;SDS011;46196;52.970;6.954;2022-12-20T08:26:21;7.20;;;4.90;;
60352;SDS011;46196;52.970;6.954;2022-12-20T08:28:46;7.05;;;4.60;;
60352;SDS011;46196;52.970;6.954;2022-12-20T08:31:12;6.03;;;4.50;;
60352;SDS011;46196;52.970;6.954;2022-12-20T08:33:38;5.82;;;4.35;;
60352;SDS011;46196;52.970;6.954;2022-12-20T08:36:05;6.60;;;4.07;;
60352;SDS011;46196;52.970;6.954;2022-12-20T08:38:33;5.43;;;4.00;;
60352;SDS011;46196;52.970;6.954;2022-12-20T08:41:03;5.63;;;4.32;;
60352;SDS011;46196;52.970;6.954;2022-12-20T08:43:31;5.38;;;3.72;;
60352;SDS011;46196;52.970;6.954;2022-12-20T08:45:57;7.07;;;5.10;;
60352;SDS011;46196;52.970;6.954;2022-12-20T08:48:23;5.28;;;4.07;;
60352;SDS011;46196;52.970;6.954;2022-12-20T08:50:56;6.10;;;4.07;;
60352;SDS011;46196;52.970;6.954;2022-12-20T08:53:24;6.65;;;3.75;;
60352;SDS011;46196;52.970;6.954;2022-12-20T08:55:50;5.00;;;3.35;;
60352;SDS011;46196;52.970;6.954;2022-12-20T08:58:16;4.95;;;3.75;;
60352;SDS011;46196;52.970;6.954;2022-12-20T09:00:42;5.57;;;4.13;;
60352;SDS011;46196;52.970;6.954;2022-12-20T09:03:08;4.97;;;3.55;;
60352;SDS011;46196;52.970;6.954;2022-12-20T09:05:35;5.78;;;3.63;;
60352;SDS011;46196;52.970;6.954;2022-12-20T09:08:14;5.20;;;3.88;;
60352;SDS011;46196;52.970;6.954;2022-12-20T09:10:41;5.63;;;3.63;;
60352;SDS011;46196;52.970;6.954;2022-12-20T09:13:07;5.85;;;3.60;;
60352;SDS011;46196;52.970;6.954;2022-12-20T09:15:34;5.90;;;3.80;;
60352;SDS011;46196;52.970;6.954;2022-12-20T09:18:00;4.93;;;3.67;;
60352;SDS011;46196;52.970;6.954;2022-12-20T09:20:26;5.47;;;3.40;;
60352;SDS011;46196;52.970;6.954;2022-12-20T09:22:52;6.50;;;3.70;;
60352;SDS011;46196;52.970;6.954;2022-12-20T09:25:18;5.70;;;4.20;;
60352;SDS011;46196;52.970;6.954;2022-12-20T09:27:44;6.88;;;3.75;;
60352;SDS011;46196;52.970;6.954;2022-12-20T09:30:09;4.57;;;3.67;;
60352;SDS011;46196;52.970;6.954;2022-12-20T09:32:36;5.97;;;3.40;;
60352;SDS011;46196;52.970;6.954;2022-12-20T09:35:02;5.47;;;3.67;;
60352;SDS011;46196;52.970;6.954;2022-12-20T09:37:29;5.53;;;3.67;;
60352;SDS011;46196;52.970;6.954;2022-12-20T09:39:55;6.32;;;3.47;;
60352;SDS011;46196;52.970;6.954;2022-12-20T09:42:23;5.63;;;3.72;;
60352;SDS011;46196;52.970;6.954;2022-12-20T09:47:22;5.90;;;4.03;;
60352;SDS011;46196;52.970;6.954;2022-12-20T09:49:52;5.05;;;4.10;;
60352;SDS011;46196;52.970;6.954;2022-12-20T09:55:14;4.50;;;3.53;;
60352;SDS011;46196;52.970;6.954;2022-12-20T10:00:24;5.10;;;3.90;;
60352;SDS011;46196;52.970;6.954;2022-12-20T10:02:50;5.00;;;3.80;;
60352;SDS011;46196;52.970;6.954;2022-12-20T10:05:24;5.43;;;3.70;;
60352;SDS011;46196;52.970;6.954;2022-12-20T10:16:18;6.32;;;3.72;;
60352;SDS011;46196;52.970;6.954;2022-12-20T10:24:15;6.85;;;4.00;;
60352;SDS011;46196;52.970;6.954;2022-12-20T10:26:49;5.32;;;3.83;;
60352;SDS011;46196;52.970;6.954;2022-12-20T10:29:16;5.53;;;4.00;;
60352;SDS011;46196;52.970;6.954;2022-12-20T10:31:42;8.55;;;4.32;;
60352;SDS011;46196;52.970;6.954;2022-12-20T10:34:08;6.40;;;4.10;;
60352;SDS011;46196;52.970;6.954;2022-12-20T10:36:35;6.05;;;4.18;;
60352;SDS011;46196;52.970;6.954;2022-12-20T10:39:05;5.88;;;4.20;;
60352;SDS011;46196;52.970;6.954;2022-12-20T10:41:33;7.45;;;4.10;;
60352;SDS011;46196;52.970;6.954;2022-12-20T10:46:41;5.60;;;4.40;;
60352;SDS011;46196;52.970;6.954;2022-12-20T10:49:25;7.57;;;4.50;;
60352;SDS011;46196;52.970;6.954;2022-12-20T10:52:01;6.75;;;4.40;;
60352;SDS011;46196;52.970;6.954;2022-12-20T10:54:34;5.47;;;4.18;;
60352;SDS011;46196;52.970;6.954;2022-12-20T10:59:43;5.78;;;3.83;;
60352;SDS011;46196;52.970;6.954;2022-12-20T11:04:57;10.13;;;4.43;;
60352;SDS011;46196;52.970;6.954;2022-12-20T11:07:25;6.50;;;4.10;;
60352;SDS011;46196;52.970;6.954;2022-12-20T11:10:00;7.35;;;4.88;;
60352;SDS011;46196;52.970;6.954;2022-12-20T11:12:57;5.95;;;4.40;;
60352;SDS011;46196;52.970;6.954;2022-12-20T11:15:28;6.30;;;4.40;;
60352;SDS011;46196;52.970;6.954;2022-12-20T11:18:06;6.60;;;4.03;;
60352;SDS011;46196;52.970;6.954;2022-12-20T11:23:17;7.93;;;4.63;;
60352;SDS011;46196;52.970;6.954;2022-12-20T11:35:16;5.90;;;4.40;;
60352;SDS011;46196;52.970;6.954;2022-12-20T11:37:48;5.38;;;4.20;;
60352;SDS011;46196;52.970;6.954;2022-12-20T11:43:11;5.00;;;4.05;;
60352;SDS011;46196;52.970;6.954;2022-12-20T11:46:00;7.18;;;4.93;;
60352;SDS011;46196;52.970;6.954;2022-12-20T11:56:19;5.50;;;3.88;;
60352;SDS011;46196;52.970;6.954;2022-12-20T12:04:53;5.03;;;3.63;;
60352;SDS011;46196;52.970;6.954;2022-12-20T12:07:30;16.23;;;9.23;;
60352;SDS011;46196;52.970;6.954;2022-12-20T12:12:45;4.75;;;3.80;;
60352;SDS011;46196;52.970;6.954;2022-12-20T12:17:44;7.00;;;3.97;;
60352;SDS011;46196;52.970;6.954;2022-12-20T12:20:39;6.68;;;5.28;;
60352;SDS011;46196;52.970;6.954;2022-12-20T12:25:55;6.50;;;4.78;;
60352;SDS011;46196;52.970;6.954;2022-12-20T12:28:25;6.15;;;4.00;;
60352;SDS011;46196;52.970;6.954;2022-12-20T12:31:09;5.63;;;4.55;;
60352;SDS011;46196;52.970;6.954;2022-12-20T12:33:48;6.28;;;5.20;;
60352;SDS011;46196;52.970;6.954;2022-12-20T12:39:03;6.35;;;4.35;;
60352;SDS011;46196;52.970;6.954;2022-12-20T12:47:11;7.05;;;4.55;;
60352;SDS011;46196;52.970;6.954;2022-12-20T12:49:41;9.63;;;5.35;;
60352;SDS011;46196;52.970;6.954;2022-12-20T12:52:25;6.80;;;4.88;;
60352;SDS011;46196;52.970;6.954;2022-12-20T12:54:58;7.55;;;4.85;;
60352;SDS011;46196;52.970;6.954;2022-12-20T12:57:23;4.28;;;3.88;;
60352;SDS011;46196;52.970;6.954;2022-12-20T12:59:49;8.88;;;6.05;;
60352;SDS011;46196;52.970;6.954;2022-12-20T13:10:54;5.80;;;4.82;;
60352;SDS011;46196;52.970;6.954;2022-12-20T13:17:55;7.72;;;5.07;;
60352;SDS011;46196;52.970;6.954;2022-12-20T13:25:51;7.60;;;5.35;;
60352;SDS011;46196;52.970;6.954;2022-12-20T13:33:37;9.07;;;5.50;;
60352;SDS011;46196;52.970;6.954;2022-12-20T13:41:18;6.80;;;5.00;;
60352;SDS011;46196;52.970;6.954;2022-12-20T13:43:51;7.30;;;5.25;;
60352;SDS011;46196;52.970;6.954;2022-12-20T13:47:05;6.90;;;5.28;;
60352;SDS011;46196;52.970;6.954;2022-12-20T13:49:16;6.32;;;5.07;;
60352;SDS011;46196;52.970;6.954;2022-12-20T13:54:39;7.47;;;6.15;;
60352;SDS011;46196;52.970;6.954;2022-12-20T13:57:13;8.98;;;6.32;;
60352;SDS011;46196;52.970;6.954;2022-12-20T13:59:43;6.45;;;5.50;;
60352;SDS011;46196;52.970;6.954;2022-12-20T14:02:16;7.70;;;5.70;;
60352;SDS011;46196;52.970;6.954;2022-12-20T14:04:45;5.90;;;5.22;;
60352;SDS011;46196;52.970;6.954;2022-12-20T14:07:23;6.38;;;5.32;;
60352;SDS011;46196;52.970;6.954;2022-12-20T14:09:55;9.10;;;5.93;;
60352;SDS011;46196;52.970;6.954;2022-12-20T14:12:23;5.38;;;4.57;;
60352;SDS011;46196;52.970;6.954;2022-12-20T14:14:49;8.07;;;5.35;;
60352;SDS011;46196;52.970;6.954;2022-12-20T14:20:00;8.40;;;5.35;;
60352;SDS011;46196;52.970;6.954;2022-12-20T14:22:28;8.82;;;5.75;;
60352;SDS011;46196;52.970;6.954;2022-12-20T14:24:54;8.10;;;5.88;;
60352;SDS011;46196;52.970;6.954;2022-12-20T14:27:20;7.85;;;5.72;;
60352;SDS011;46196;52.970;6.954;2022-12-20T14:29:46;6.63;;;5.75;;
60352;SDS011;46196;52.970;6.954;2022-12-20T14:32:17;6.47;;;4.53;;
60352;SDS011;46196;52.970;6.954;2022-12-20T14:34:44;7.32;;;6.13;;
60352;SDS011;46196;52.970;6.954;2022-12-20T14:39:53;7.40;;;5.50;;
60352;SDS011;46196;52.970;6.954;2022-12-20T14:42:21;19.17;;;14.73;;
60352;SDS011;46196;52.970;6.954;2022-12-20T14:44:47;14.50;;;10.73;;
60352;SDS011;46196;52.970;6.954;2022-12-20T14:47:14;7.68;;;6.80;;
60352;SDS011;46196;52.970;6.954;2022-12-20T14:49:47;7.32;;;5.90;;
60352;SDS011;46196;52.970;6.954;2022-12-20T14:52:20;7.03;;;6.05;;
60352;SDS011;46196;52.970;6.954;2022-12-20T14:55:13;6.95;;;5.65;;
60352;SDS011;46196;52.970;6.954;2022-12-20T14:57:50;6.65;;;5.60;;
60352;SDS011;46196;52.970;6.954;2022-12-20T15:13:23;8.18;;;6.72;;
60352;SDS011;46196;52.970;6.954;2022-12-20T15:16:14;7.78;;;5.70;;
60352;SDS011;46196;52.970;6.954;2022-12-20T15:18:42;9.45;;;5.53;;
60352;SDS011;46196;52.970;6.954;2022-12-20T15:21:11;7.55;;;6.50;;
60352;SDS011;46196;52.970;6.954;2022-12-20T15:23:44;10.25;;;7.88;;
60352;SDS011;46196;52.970;6.954;2022-12-20T15:26:14;8.15;;;6.68;;
60352;SDS011;46196;52.970;6.954;2022-12-20T15:28:41;8.25;;;7.07;;
60352;SDS011;46196;52.970;6.954;2022-12-20T15:31:10;9.60;;;7.10;;
60352;SDS011;46196;52.970;6.954;2022-12-20T15:33:38;8.40;;;6.85;;
60352;SDS011;46196;52.970;6.954;2022-12-20T15:36:06;10.20;;;7.30;;
60352;SDS011;46196;52.970;6.954;2022-12-20T15:38:37;9.60;;;7.28;;
60352;SDS011;46196;52.970;6.954;2022-12-20T15:41:03;8.52;;;7.13;;
60352;SDS011;46196;52.970;6.954;2022-12-20T15:43:33;9.10;;;7.28;;
60352;SDS011;46196;52.970;6.954;2022-12-20T15:46:03;10.18;;;8.10;;
60352;SDS011;46196;52.970;6.954;2022-12-20T15:48:29;9.63;;;7.68;;
60352;SDS011;46196;52.970;6.954;2022-12-20T15:50:55;10.38;;;7.82;;
60352;SDS011;46196;52.970;6.954;2022-12-20T15:53:24;11.07;;;8.50;;
60352;SDS011;46196;52.970;6.954;2022-12-20T15:55:59;8.88;;;7.70;;
60352;SDS011;46196;52.970;6.954;2022-12-20T15:58:25;7.65;;;6.45;;
60352;SDS011;46196;52.970;6.954;2022-12-20T16:00:52;10.40;;;8.02;;
60352;SDS011;46196;52.970;6.954;2022-12-20T16:03:21;9.05;;;6.82;;
